EMHI - Aviation weather information

Aviation weather information 2024-04-24 04:05 UTC

Weather forecasts
TAF (FTEO31)
FTEO31 EETN 232300
TAF EETN 232330Z 2400/2424 19006KT 9999 BKN025 PROB40 TEMPO
     2400/2407 BKN005 PROB30 TEMPO 2401/2406 2000 BR TEMPO 2407/2413
     SCT010 SCT020CB BECMG 2414/2416 08010KT=
TAF (FTEO33)
FTEO33 EEEI 232300
TAF EEEI 232330Z 2400/2424 18008KT 9999 FEW020 TEMPO 2408/2417
     BKN020 BECMG 2413/2415 13008KT=
TAF (FCEO32)
FCEO32 EETN 240300
TAF EEKA 240300Z 2404/2410 18008KT 9999 9999 SCT012 BKN025
     PROB40 TEMPO 2404/2407 BKN006= 
FCEO32 EETN 240300
TAF EEKE 240300Z 2404/2410 19010KT 9999 BKN010 TEMPO 2404/2408
     BKN006 SCT015CB PROB30 TEMPO 2404/2407 4000 SHRA BECMG 2409/2411
     13010 SCT010 BKN020=
Weather observations (METAR/SPECI)
METAR COR EETN 240350Z 16004KT 9999 FEW009 M01/M03 Q1015 NOSIG=
METAR EEEI 240350Z 16006KT CAVOK M01/M02 Q1015 NOSIG=
METAR EETU 240350Z 17006KT 9999 OVC045 02/M00 Q1017=
METAR EEKE 240350Z 20008KT 9999 FEW008 02/01 Q1014=
METAR EEKA 240350Z 17006KT 9999 FEW047 00/M01 Q1014=
SPECI EEPU 240402Z AUTO 21010KT 9999 BKN013/// OVC061/// 03/00 Q1015=